Time;durP1;ratioP1;P1;durP2;ratioP2;P2;SDS_P1;SDS_P2;PMS_P1;PMS_P2;Temp;Humidity;BMP_temperature;BMP_pressure;BME280_temperature;BME280_humidity;BME280_pressure;Samples;Min_cycle;Max_cycle;Signal;HPM_P1;HPM_P2
2022/10/09 00:00:39;;;;;;;4.90;2.00;;;;;;;15.19;42.52;102313.78;5055177;28;20077;-61
2022/10/09 00:03:05;;;;;;;3.38;1.60;;;;;;;15.19;41.94;102320.00;5073490;28;20497;-61
2022/10/09 00:05:30;;;;;;;2.65;1.92;;;;;;;15.16;42.79;102318.41;5073676;28;20108;-61
2022/10/09 00:07:55;;;;;;;6.15;1.90;;;;;;;15.15;42.09;102322.13;5072758;28;20032;-61
2022/10/09 00:10:21;;;;;;;4.50;1.77;;;;;;;15.10;42.05;102312.66;5073227;28;20025;-61
2022/10/09 00:12:46;;;;;;;2.13;1.90;;;;;;;14.96;42.54;102294.84;5055639;28;20029;-60
2022/10/09 00:15:12;;;;;;;2.35;1.90;;;;;;;15.05;42.89;102304.03;5073868;28;20401;-61
2022/10/09 00:17:37;;;;;;;4.72;2.35;;;;;;;14.99;41.71;102299.16;5073756;28;20020;-61
2022/10/09 00:20:03;;;;;;;2.80;1.63;;;;;;;15.01;41.57;102318.78;5075164;28;20020;-61
2022/10/09 00:22:28;;;;;;;3.85;2.40;;;;;;;14.96;41.82;102304.78;5059858;28;20025;-61
2022/10/09 00:24:54;;;;;;;9.35;2.20;;;;;;;14.98;41.51;102319.03;5077184;28;20028;-61
2022/10/09 00:27:23;;;;;;;7.95;2.30;;;;;;;14.98;42.24;102313.63;5076531;28;20025;-61
2022/10/09 00:29:49;;;;;;;3.88;2.58;;;;;;;14.95;41.56;102312.03;5076359;28;20036;-61
2022/10/09 00:32:14;;;;;;;4.20;2.25;;;;;;;14.95;42.04;102321.97;5076523;28;20021;-61
2022/10/09 00:34:41;;;;;;;4.00;2.50;;;;;;;14.90;42.36;102316.06;5075105;28;20032;-60
2022/10/09 00:37:06;;;;;;;3.65;2.35;;;;;;;14.89;42.26;102320.59;5059351;28;20903;-61
2022/10/09 00:39:31;;;;;;;6.68;1.80;;;;;;;14.91;42.26;102326.72;5042548;28;20032;-64
2022/10/09 00:41:57;;;;;;;4.53;2.45;;;;;;;14.92;42.98;102330.28;5077010;28;20032;-60
2022/10/09 00:44:44;;;;;;;5.65;2.47;;;;;;;14.90;42.36;102329.56;5076422;28;20057;-61
2022/10/09 00:47:16;;;;;;;3.60;2.42;;;;;;;14.88;41.70;102332.34;5076130;28;20041;-60
2022/10/09 00:49:42;;;;;;;7.80;2.30;;;;;;;14.88;41.75;102334.22;5058417;28;20048;-63
2022/10/09 00:52:07;;;;;;;2.58;2.03;;;;;;;14.85;42.82;102329.06;5076787;28;20141;-60
2022/10/09 00:54:36;;;;;;;2.30;1.70;;;;;;;14.81;42.62;102332.97;5058656;28;20362;-61
2022/10/09 00:57:01;;;;;;;5.85;2.42;;;;;;;14.80;42.65;102320.44;5076074;28;20055;-61
2022/10/09 00:59:27;;;;;;;3.88;2.40;;;;;;;14.76;42.21;102317.16;5074735;28;20036;-61
2022/10/09 01:01:52;;;;;;;2.83;2.17;;;;;;;14.72;41.82;102312.97;5041200;28;20024;-61
2022/10/09 01:04:18;;;;;;;3.65;1.95;;;;;;;14.70;41.86;102314.06;5076322;28;20370;-61
2022/10/09 01:06:46;;;;;;;4.05;2.20;;;;;;;14.68;43.12;102313.34;5041389;28;20033;-60
2022/10/09 01:09:17;;;;;;;4.40;2.30;;;;;;;14.64;41.49;102315.41;5075808;28;20059;-61
2022/10/09 01:11:58;;;;;;;4.20;2.20;;;;;;;14.63;41.59;102315.53;5074665;28;20498;-61
2022/10/09 01:14:26;;;;;;;8.77;2.60;;;;;;;14.61;42.01;102323.72;5041112;28;20465;-61
2022/10/09 01:17:07;;;;;;;2.72;2.25;;;;;;;14.58;43.17;102314.03;5057885;28;20027;-60
2022/10/09 01:19:58;;;;;;;2.42;2.03;;;;;;;14.56;42.78;102312.44;5057768;28;20020;-60
2022/10/09 01:22:31;;;;;;;7.20;2.25;;;;;;;14.53;41.66;102313.53;5075676;28;20074;-61
2022/10/09 01:25:01;;;;;;;3.08;1.98;;;;;;;14.52;42.30;102317.19;5076025;28;20039;-60
2022/10/09 01:27:27;;;;;;;2.47;1.67;;;;;;;14.50;42.79;102312.91;5058381;28;20084;-61
2022/10/09 01:30:05;;;;;;;3.08;1.85;;;;;;;14.45;42.59;102315.97;5058412;28;20581;-61
2022/10/09 01:32:33;;;;;;;2.72;1.88;;;;;;;14.42;41.65;102308.13;5057664;28;20036;-61
2022/10/09 01:34:59;;;;;;;5.55;2.63;;;;;;;14.37;42.21;102296.84;5075535;28;20029;-60
2022/10/09 01:37:26;;;;;;;4.93;1.90;;;;;;;14.37;43.17;102301.34;5057307;28;20036;-60
2022/10/09 01:39:52;;;;;;;3.20;2.20;;;;;;;14.35;41.74;102303.31;5041014;28;20029;-61
2022/10/09 01:42:20;;;;;;;2.95;2.13;;;;;;;14.32;42.42;102301.69;5058499;28;20115;-60
2022/10/09 01:44:45;;;;;;;2.22;1.98;;;;;;;14.28;42.95;102300.19;5074418;28;20067;-61
2022/10/09 01:47:15;;;;;;;3.05;1.80;;;;;;;14.27;42.88;102300.28;5075917;28;20401;-61
2022/10/09 01:49:56;;;;;;;4.38;1.95;;;;;;;14.26;42.27;102299.47;5041402;28;20398;-61
2022/10/09 01:52:36;;;;;;;3.45;1.95;;;;;;;14.22;42.67;102299.78;5075911;28;20782;-61
2022/10/09 01:55:25;;;;;;;3.85;1.52;;;;;;;14.20;42.30;102305.31;5075704;28;20544;-60
2022/10/09 01:58:03;;;;;;;5.90;1.92;;;;;;;14.14;42.18;102291.44;5075589;28;20028;-60
2022/10/09 02:00:29;;;;;;;2.70;1.50;;;;;;;14.13;42.03;102290.56;5075884;28;20035;-60
2022/10/09 02:02:56;;;;;;;2.22;1.73;;;;;;;14.12;41.78;102288.00;5057487;28;20036;-61
2022/10/09 02:05:25;;;;;;;2.35;2.10;;;;;;;14.10;43.33;102287.25;5074681;28;20484;-60
2022/10/09 02:07:50;;;;;;;3.92;2.22;;;;;;;14.09;43.15;102285.53;5074526;28;20090;-61
2022/10/09 02:10:17;;;;;;;3.65;2.30;;;;;;;14.06;42.55;102286.63;5056341;28;20052;-61
2022/10/09 02:12:46;;;;;;;5.93;2.20;;;;;;;14.05;42.04;102290.28;5056881;28;20027;-61
2022/10/09 02:15:12;;;;;;;2.88;2.17;;;;;;;14.05;42.33;102281.34;5073436;28;20017;-61
2022/10/09 02:17:43;;;;;;;4.70;2.30;;;;;;;14.04;42.45;102283.19;5075152;28;20420;-61
2022/10/09 02:20:13;;;;;;;3.58;2.28;;;;;;;14.01;43.00;102273.47;5074576;28;20112;-61
2022/10/09 02:22:39;;;;;;;5.38;1.98;;;;;;;14.01;42.11;102280.72;5056689;28;20087;-60
2022/10/09 02:25:05;;;;;;;3.03;1.90;;;;;;;13.96;41.85;102269.41;5056478;28;20036;-60
2022/10/09 02:27:31;;;;;;;3.78;1.70;;;;;;;13.93;41.90;102278.59;5057323;28;20024;-61
2022/10/09 02:29:57;;;;;;;1.98;1.77;;;;;;;13.90;43.05;102275.28;5056840;28;20039;-61
2022/10/09 02:32:23;;;;;;;4.43;2.10;;;;;;;13.87;42.43;102275.53;5056191;28;20097;-60
2022/10/09 02:34:48;;;;;;;4.90;2.55;;;;;;;13.86;42.78;102273.78;5056112;28;20028;-60
2022/10/09 02:37:14;;;;;;;2.22;2.05;;;;;;;13.80;42.47;102258.94;5074779;28;20115;-61
2022/10/09 02:39:40;;;;;;;3.83;1.77;;;;;;;13.81;42.44;102265.19;5074933;28;20113;-61
2022/10/09 02:42:06;;;;;;;2.03;1.52;;;;;;;13.79;43.09;102261.78;5073477;28;20081;-60
2022/10/09 02:44:31;;;;;;;4.60;2.08;;;;;;;13.73;42.43;102251.44;5073929;28;20048;-61
2022/10/09 02:46:56;;;;;;;3.03;1.88;;;;;;;13.74;43.18;102261.22;5064185;28;20068;-61
2022/10/09 02:49:22;;;;;;;2.03;1.80;;;;;;;13.71;42.23;102267.69;5053714;28;20029;-61
2022/10/09 02:51:47;;;;;;;3.15;2.22;;;;;;;13.69;43.08;102263.41;5054432;28;20099;-60
2022/10/09 02:54:13;;;;;;;4.05;2.10;;;;;;;13.68;42.08;102259.03;5054453;28;20537;-61
2022/10/09 02:56:38;;;;;;;4.25;1.58;;;;;;;13.66;42.87;102267.19;5054152;28;20033;-61
2022/10/09 02:59:03;;;;;;;5.55;1.92;;;;;;;13.64;42.58;102258.38;5036741;28;20520;-60
2022/10/09 03:01:29;;;;;;;4.65;2.03;;;;;;;13.64;42.43;102268.28;5036422;28;20028;-61
2022/10/09 03:03:54;;;;;;;2.28;1.80;;;;;;;13.62;42.63;102259.47;5035777;28;20505;-61
2022/10/09 03:06:22;;;;;;;5.25;2.58;;;;;;;13.61;43.25;102257.75;5035705;28;20104;-61
2022/10/09 03:08:48;;;;;;;6.90;2.88;;;;;;;13.62;43.43;102262.16;5053744;28;20029;-61
2022/10/09 03:11:15;;;;;;;4.70;1.95;;;;;;;13.60;42.26;102256.00;5053565;28;20029;-60
2022/10/09 03:13:41;;;;;;;2.03;1.80;;;;;;;13.57;42.43;102256.25;5036541;28;20025;-61
2022/10/09 03:16:18;;;;;;;4.93;2.13;;;;;;;13.55;42.96;102250.09;5053975;28;20040;-61
2022/10/09 03:18:44;;;;;;;2.42;2.08;;;;;;;13.52;42.80;102242.25;5035994;28;20012;-61
2022/10/09 03:21:12;;;;;;;4.35;1.75;;;;;;;13.52;43.16;102255.72;5036390;28;20108;-61
2022/10/09 03:23:38;;;;;;;3.13;2.08;;;;;;;13.51;42.83;102251.31;5054400;28;20035;-61
2022/10/09 03:26:09;;;;;;;5.07;2.45;;;;;;;13.49;42.13;102242.47;5035958;28;20037;-61
2022/10/09 03:28:36;;;;;;;6.35;2.45;;;;;;;13.47;42.44;102244.44;5053263;28;20052;-60
2022/10/09 03:31:02;;;;;;;2.90;2.03;;;;;;;13.43;43.38;102232.19;5053913;28;20028;-61
2022/10/09 03:33:27;;;;;;;3.75;2.15;;;;;;;13.43;43.12;102244.66;5053498;28;20455;-63
2022/10/09 03:35:52;;;;;;;2.92;1.77;;;;;;;13.41;43.62;102246.59;5052971;28;20033;-60
2022/10/09 03:38:18;;;;;;;3.00;2.00;;;;;;;13.34;42.90;102234.56;5053014;28;20397;-61
2022/10/09 03:40:43;;;;;;;3.90;2.15;;;;;;;13.34;42.75;102234.56;5053299;28;20032;-61
2022/10/09 03:43:08;;;;;;;2.70;1.73;;;;;;;13.34;42.95;102239.94;5053118;28;20040;-61
2022/10/09 03:45:34;;;;;;;3.17;1.98;;;;;;;13.30;42.67;102230.38;5035030;28;20049;-61
2022/10/09 03:47:59;;;;;;;2.75;1.73;;;;;;;13.30;42.39;102227.69;5052925;28;20045;-60
2022/10/09 03:50:25;;;;;;;3.95;1.90;;;;;;;13.27;42.92;102233.31;5052781;28;20033;-61
2022/10/09 03:52:50;;;;;;;2.03;1.77;;;;;;;13.27;43.16;102238.69;5053849;28;20104;-61
2022/10/09 03:55:16;;;;;;;4.00;1.92;;;;;;;13.26;43.22;102231.56;5055910;28;20381;-61
2022/10/09 03:57:41;;;;;;;4.35;2.17;;;;;;;13.23;42.86;102226.41;5057236;28;20025;-61
2022/10/09 04:00:07;;;;;;;2.05;1.70;;;;;;;13.20;43.25;102229.34;5039192;28;20025;-61
2022/10/09 04:02:33;;;;;;;1.98;1.85;;;;;;;13.16;42.66;102219.78;5057247;28;20039;-61
2022/10/09 04:04:59;;;;;;;6.43;2.55;;;;;;;13.16;42.45;102226.97;5039004;28;20027;-60
2022/10/09 04:07:24;;;;;;;4.30;2.28;;;;;;;13.12;43.13;102223.66;5056832;28;20029;-61
2022/10/09 04:09:50;;;;;;;3.63;2.05;;;;;;;13.12;42.75;102231.72;5039183;28;20143;-61
2022/10/09 04:12:15;;;;;;;3.22;2.20;;;;;;;13.10;42.81;102230.09;5057211;28;20025;-61
2022/10/09 04:14:40;;;;;;;2.08;1.88;;;;;;;12.96;42.78;102206.88;5039701;28;20065;-61
2022/10/09 04:17:06;;;;;;;6.32;2.13;;;;;;;13.07;43.72;102228.50;5057082;28;20052;-60
2022/10/09 04:19:31;;;;;;;2.15;1.70;;;;;;;13.06;42.79;102226.78;5056653;28;20055;-61
2022/10/09 04:21:57;;;;;;;2.95;2.25;;;;;;;13.04;42.92;102223.31;5039079;28;20465;-60
2022/10/09 04:24:22;;;;;;;5.15;2.25;;;;;;;13.04;43.52;102226.00;5039375;28;20066;-61
2022/10/09 04:26:47;;;;;;;3.85;2.35;;;;;;;13.02;42.79;102222.56;5039298;28;20025;-60
2022/10/09 04:29:13;;;;;;;4.80;1.70;;;;;;;13.01;43.02;102214.63;5039598;28;20112;-60
2022/10/09 04:31:38;;;;;;;2.42;2.10;;;;;;;12.96;43.02;102223.00;5056945;28;20033;-61
2022/10/09 04:34:04;;;;;;;2.63;1.98;;;;;;;12.97;42.42;102218.50;5039282;28;20426;-61
2022/10/09 04:36:29;;;;;;;2.75;1.90;;;;;;;12.94;42.50;102219.56;5056415;28;20029;-60
2022/10/09 04:38:54;;;;;;;3.58;2.40;;;;;;;12.91;42.85;102225.19;5056228;28;20397;-61
2022/10/09 04:41:20;;;;;;;1.85;1.70;;;;;;;12.87;42.75;102215.59;5057237;28;20033;-60
2022/10/09 04:43:46;;;;;;;1.95;1.58;;;;;;;12.85;42.97;102218.41;5056819;28;20041;-60
2022/10/09 04:46:13;;;;;;;2.03;1.55;;;;;;;12.85;42.61;102209.47;5057172;28;20132;-61
2022/10/09 04:48:44;;;;;;;2.03;1.85;;;;;;;12.84;43.49;102213.16;5038946;28;20529;-60
2022/10/09 04:51:10;;;;;;;5.10;1.92;;;;;;;12.80;42.56;102206.25;5056315;28;20108;-61
2022/10/09 04:53:36;;;;;;;4.00;2.42;;;;;;;12.80;43.51;102207.13;5021415;28;20029;-61
2022/10/09 04:56:03;;;;;;;6.25;3.53;;;;;;;12.79;42.78;102210.78;5038102;28;20504;-61
2022/10/09 04:58:29;;;;;;;8.52;3.22;;;;;;;12.78;43.57;102214.44;5056006;28;20032;-60
2022/10/09 05:00:55;;;;;;;17.45;5.57;;;;;;;12.77;43.10;102211.84;5056124;28;20493;-60
2022/10/09 05:03:20;;;;;;;6.28;4.25;;;;;;;12.77;42.99;102211.84;5056032;28;20159;-60
2022/10/09 05:05:46;;;;;;;3.97;2.58;;;;;;;12.73;43.20;102199.63;5055334;28;20525;-61
2022/10/09 05:08:11;;;;;;;2.22;1.88;;;;;;;12.72;43.65;102200.56;5055790;28;20024;-61
2022/10/09 05:10:36;;;;;;;6.35;2.03;;;;;;;12.71;43.06;102206.91;5055609;28;20034;-61
2022/10/09 05:13:02;;;;;;;2.78;1.83;;;;;;;12.67;42.72;102200.03;5055719;28;20028;-61
2022/10/09 05:15:27;;;;;;;5.93;2.22;;;;;;;12.68;43.45;102204.44;5037887;28;20021;-60
2022/10/09 05:17:52;;;;;;;2.67;1.70;;;;;;;12.67;43.00;102210.81;5056222;28;20070;-61
2022/10/09 05:20:18;;;;;;;2.55;2.10;;;;;;;12.66;42.68;102199.19;5056148;28;20037;-61
2022/10/09 05:22:44;;;;;;;3.55;1.50;;;;;;;12.62;43.59;102204.88;5056120;28;20060;-61
2022/10/09 05:25:09;;;;;;;2.65;2.45;;;;;;;12.58;42.80;102195.31;5038158;28;20036;-61
2022/10/09 05:27:34;;;;;;;2.40;2.05;;;;;;;12.59;43.22;102197.88;5038298;28;20486;-60
2022/10/09 05:30:00;;;;;;;3.85;1.75;;;;;;;12.54;43.44;102193.78;5055701;28;20039;-61
2022/10/09 05:32:25;;;;;;;3.33;2.17;;;;;;;12.54;42.94;102193.78;5056065;28;20590;-61
2022/10/09 05:34:50;;;;;;;9.55;1.88;;;;;;;12.56;43.58;102195.41;5038010;28;20070;-60
2022/10/09 05:37:16;;;;;;;2.35;1.92;;;;;;;12.50;42.84;102193.19;5055321;28;20110;-61
2022/10/09 05:39:41;;;;;;;4.75;2.10;;;;;;;12.55;43.08;102198.22;5054976;28;20033;-60
2022/10/09 05:42:06;;;;;;;5.63;2.70;;;;;;;12.54;43.12;102197.34;5037460;28;20114;-60
2022/10/09 05:44:32;;;;;;;4.45;2.60;;;;;;;12.53;42.89;102192.09;5037023;28;20053;-61
2022/10/09 05:46:57;;;;;;;1.80;1.70;;;;;;;12.52;43.37;102187.69;5037707;28;20045;-60
2022/10/09 05:49:22;;;;;;;7.03;1.90;;;;;;;12.48;43.62;102189.72;5038036;28;20040;-61
2022/10/09 05:51:48;;;;;;;2.38;1.90;;;;;;;12.49;43.42;102188.75;5037695;28;20029;-60
2022/10/09 05:54:15;;;;;;;1.95;1.70;;;;;;;12.47;43.31;102189.84;5055556;28;20033;-60
2022/10/09 05:56:43;;;;;;;3.35;1.60;;;;;;;12.48;42.60;102183.50;5038044;28;20122;-61
2022/10/09 05:59:12;;;;;;;7.90;2.20;;;;;;;12.46;42.65;102182.72;5037714;28;20083;-61
2022/10/09 06:01:40;;;;;;;3.10;2.13;;;;;;;12.45;43.26;102181.03;5037603;28;20044;-61
2022/10/09 06:04:09;;;;;;;2.72;1.98;;;;;;;12.47;43.18;102189.84;5036983;28;20021;-61
2022/10/09 06:06:37;;;;;;;2.35;1.70;;;;;;;12.44;42.91;102182.84;5054704;28;20017;-61
2022/10/09 06:09:02;;;;;;;3.22;2.45;;;;;;;12.48;42.96;102188.88;5054477;28;20032;-61
2022/10/09 06:11:30;;;;;;;3.35;2.47;;;;;;;12.51;43.38;102188.63;5020196;28;20398;-60
2022/10/09 06:13:56;;;;;;;6.03;2.40;;;;;;;12.58;43.39;102184.56;5036766;28;20025;-61
2022/10/09 06:16:24;;;;;;;6.03;2.30;;;;;;;12.63;43.47;102182.41;5020354;28;20440;-61
2022/10/09 06:18:51;;;;;;;2.95;1.70;;;;;;;12.73;43.20;102188.88;5036510;28;20034;-60
2022/10/09 06:21:17;;;;;;;2.78;2.13;;;;;;;12.76;42.38;102184.09;5054423;28;20029;-60
2022/10/09 06:23:43;;;;;;;6.55;2.08;;;;;;;12.88;43.36;102198.50;5020909;28;20082;-60
2022/10/09 06:26:11;;;;;;;6.30;2.30;;;;;;;12.97;42.16;102197.84;5020555;28;20033;-60
2022/10/09 06:28:36;;;;;;;3.70;2.17;;;;;;;13.05;42.44;102195.44;5036940;28;20029;-60
2022/10/09 06:31:06;;;;;;;6.68;2.00;;;;;;;13.16;43.18;102198.25;5054793;28;20086;-61
2022/10/09 06:33:36;;;;;;;2.65;2.05;;;;;;;13.30;42.50;102189.16;5059815;28;20416;-60
2022/10/09 06:36:07;;;;;;;2.22;1.98;;;;;;;13.40;43.37;102191.06;5063218;28;20040;-60
2022/10/09 06:38:33;;;;;;;2.95;2.45;;;;;;;13.49;43.29;102192.19;5063466;28;20021;-61
2022/10/09 06:41:03;;;;;;;5.22;2.35;;;;;;;13.63;43.17;102191.16;5063726;28;20090;-60
2022/10/09 06:43:29;;;;;;;3.40;2.28;;;;;;;13.77;42.24;102199.06;5065782;28;20103;-60
2022/10/09 06:45:54;;;;;;;4.05;2.72;;;;;;;13.85;42.49;102186.72;5048806;28;20505;-61
2022/10/09 06:48:20;;;;;;;5.95;2.17;;;;;;;14.03;43.28;102189.84;5045008;28;20524;-60
2022/10/09 06:50:45;;;;;;;3.63;2.30;;;;;;;14.16;42.69;102196.00;5042113;28;20127;-61
2022/10/09 06:53:11;;;;;;;2.55;2.10;;;;;;;14.30;42.87;102192.25;5044167;28;20025;-60
2022/10/09 06:55:36;;;;;;;3.13;2.15;;;;;;;14.47;43.16;102189.97;5042634;28;20021;-61
2022/10/09 06:58:02;;;;;;;2.15;1.77;;;;;;;14.64;41.83;102180.56;5043931;28;20036;-61
2022/10/09 07:00:27;;;;;;;5.43;2.35;;;;;;;14.82;42.76;102178.22;5043881;28;20024;-61
2022/10/09 07:02:52;;;;;;;6.00;2.60;;;;;;;15.00;42.23;102180.28;5042351;28;20402;-61
2022/10/09 07:05:18;;;;;;;3.03;1.45;;;;;;;15.18;43.27;102180.63;5054726;28;20367;-60
2022/10/09 07:07:43;;;;;;;8.90;1.98;;;;;;;15.36;42.68;102173.72;5034378;28;20156;-60
2022/10/09 07:10:09;;;;;;;3.85;2.03;;;;;;;15.59;41.80;102180.78;5034544;28;20037;-61
2022/10/09 07:12:35;;;;;;;8.15;2.88;;;;;;;15.78;41.73;102179.22;5034488;28;20025;-60
2022/10/09 07:15:01;;;;;;;2.80;2.10;;;;;;;15.97;43.26;102176.72;5034465;28;20026;-60
2022/10/09 07:17:27;;;;;;;3.90;1.63;;;;;;;16.22;43.39;102179.00;5016629;28;20471;-61
2022/10/09 07:19:52;;;;;;;3.83;1.92;;;;;;;16.44;42.93;102178.00;5034954;28;20064;-60
2022/10/09 07:22:17;;;;;;;2.67;1.70;;;;;;;16.61;42.00;102170.13;5034364;28;20113;-60
2022/10/09 07:24:43;;;;;;;7.85;2.33;;;;;;;16.84;42.42;102187.91;5034879;28;20061;-60
2022/10/09 07:27:08;;;;;;;5.25;1.48;;;;;;;17.06;41.94;102185.97;5034346;28;20438;-60
2022/10/09 07:29:33;;;;;;;2.75;1.73;;;;;;;17.26;41.80;102179.63;5033810;28;20036;-61
2022/10/09 07:31:59;;;;;;;6.35;1.70;;;;;;;17.47;42.21;102180.38;5034786;28;20063;-65
2022/10/09 07:34:24;;;;;;;2.55;1.73;;;;;;;17.68;42.02;102178.44;5034446;28;20030;-60
2022/10/09 07:36:49;;;;;;;1.88;1.48;;;;;;;17.88;41.90;102174.72;5034303;28;20044;-60
2022/10/09 07:39:17;;;;;;;3.10;1.50;;;;;;;18.12;42.43;102176.97;5033843;28;20045;-60
2022/10/09 07:41:43;;;;;;;6.00;1.55;;;;;;;18.30;41.63;102163.53;5034353;28;20076;-60
2022/10/09 07:44:10;;;;;;;3.13;2.03;;;;;;;18.52;41.69;102164.06;5036192;28;20053;-61
2022/10/09 07:46:35;;;;;;;4.25;2.47;;;;;;;18.75;41.21;102169.13;5053554;28;20029;-60
2022/10/09 07:49:01;;;;;;;3.10;1.58;;;;;;;18.92;40.89;102150.19;5053518;28;20497;-61
2022/10/09 07:51:28;;;;;;;2.38;1.63;;;;;;;19.18;41.34;102158.44;5053587;28;20472;-61
2022/10/09 07:53:55;;;;;;;4.38;1.77;;;;;;;19.39;41.24;102155.50;5053973;28;20029;-61
2022/10/09 07:56:27;;;;;;;6.97;2.55;;;;;;;19.63;40.73;102156.59;5053965;28;20021;-61
2022/10/09 07:58:58;;;;;;;4.65;1.80;;;;;;;19.85;41.25;102138.94;5053764;28;20447;-60
2022/10/09 08:01:24;;;;;;;2.53;2.13;;;;;;;20.07;40.91;102149.31;5054034;28;20029;-61
2022/10/09 08:03:50;;;;;;;6.22;2.28;;;;;;;20.28;40.80;102147.13;5052425;28;20185;-61
2022/10/09 08:06:16;;;;;;;4.50;2.33;;;;;;;20.53;40.39;102147.25;5053862;28;20025;-61
2022/10/09 08:08:42;;;;;;;3.42;1.70;;;;;;;20.74;41.20;102145.00;5035840;28;20036;-61
2022/10/09 08:11:13;;;;;;;7.40;2.03;;;;;;;20.95;41.13;102134.53;5035967;28;20029;-61
2022/10/09 08:13:39;;;;;;;6.25;1.83;;;;;;;21.17;40.79;102133.94;5054109;28;20025;-61
2022/10/09 08:16:05;;;;;;;2.75;1.50;;;;;;;21.43;40.28;102145.59;5053941;28;20029;-61
2022/10/09 08:18:31;;;;;;;4.00;1.83;;;;;;;21.55;39.58;102128.91;5053549;28;20032;-61
2022/10/09 08:21:07;;;;;;;10.73;1.95;;;;;;;21.85;39.85;102136.44;5053356;28;20037;-61
2022/10/09 08:23:33;;;;;;;6.55;2.47;;;;;;;22.09;39.46;102141.91;5035676;28;20021;-61
2022/10/09 08:25:58;;;;;;;7.78;2.50;;;;;;;22.26;39.49;102129.94;5053299;28;20078;-63
2022/10/09 08:28:24;;;;;;;6.00;2.72;;;;;;;22.47;39.17;102141.13;5053162;28;20029;-61
2022/10/09 08:30:49;;;;;;;13.10;1.98;;;;;;;22.69;39.33;102133.28;5053323;28;20029;-61
2022/10/09 08:33:19;;;;;;;7.53;1.70;;;;;;;22.90;39.71;102131.63;5053022;28;20032;-60
2022/10/09 08:35:44;;;;;;;4.68;2.05;;;;;;;23.13;38.79;102126.22;5052207;28;20116;-61
2022/10/09 08:38:10;;;;;;;10.25;3.15;;;;;;;23.37;38.49;102125.22;5053524;28;20052;-61
2022/10/09 08:40:50;;;;;;;4.32;1.48;;;;;;;23.62;38.20;102121.31;5054213;28;20072;-61
2022/10/09 08:43:17;;;;;;;5.13;2.05;;;;;;;23.85;38.09;102115.81;5057103;28;20028;-61
2022/10/09 08:45:46;;;;;;;4.97;1.48;;;;;;;24.00;38.41;102098.41;5055542;28;20211;-61
2022/10/09 08:48:15;;;;;;;11.40;1.80;;;;;;;24.23;38.22;102104.69;5056738;28;20402;-61
2022/10/09 08:50:46;;;;;;;4.05;1.42;;;;;;;24.45;37.65;102108.41;5056736;28;20055;-61
2022/10/09 08:53:38;;;;;;;6.20;1.80;;;;;;;24.63;37.89;102100.66;5056498;28;20115;-60
2022/10/09 08:56:05;;;;;;;7.18;1.58;;;;;;;24.76;37.44;102099.97;5056843;28;20049;-61
2022/10/09 08:58:35;;;;;;;6.70;1.42;;;;;;;24.88;37.19;102093.84;5039130;28;20028;-61
2022/10/09 09:01:06;;;;;;;8.20;1.33;;;;;;;25.05;36.91;102093.59;5038633;28;20033;-61
2022/10/09 09:04:05;;;;;;;4.30;1.33;;;;;;;25.25;37.18;102105.66;5056355;28;20103;-61
2022/10/09 09:06:37;;;;;;;1.23;1.08;;;;;;;25.46;36.72;102097.47;5056143;28;20051;-61
2022/10/09 09:09:17;;;;;;;3.33;1.55;;;;;;;25.66;36.55;102093.03;5056079;28;20187;-61
2022/10/09 09:11:54;;;;;;;8.43;1.33;;;;;;;25.87;36.71;102084.78;5038573;28;20539;-60
2022/10/09 09:14:55;;;;;;;5.60;1.33;;;;;;;26.15;36.08;102082.06;5054872;28;20028;-61
2022/10/09 09:17:32;;;;;;;3.67;1.80;;;;;;;26.52;35.60;102072.56;5037203;28;20025;-61
2022/10/09 09:20:03;;;;;;;8.10;1.55;;;;;;;27.11;35.07;102064.56;5055933;28;20037;-61
2022/10/09 09:22:30;;;;;;;4.93;1.67;;;;;;;28.33;33.87;102056.81;5055854;28;20107;-61
2022/10/09 09:24:57;;;;;;;4.57;1.05;;;;;;;30.64;31.07;102058.59;5038282;28;20580;-61
2022/10/09 09:27:33;;;;;;;3.10;1.20;;;;;;;30.06;31.90;102060.94;5055812;28;20462;-61
2022/10/09 09:30:11;;;;;;;8.20;1.63;;;;;;;29.76;32.96;102057.16;5055906;28;20028;-61
2022/10/09 09:32:39;;;;;;;4.75;1.77;;;;;;;29.74;32.44;102050.97;5055875;28;20500;-61
2022/10/09 09:35:12;;;;;;;8.25;1.73;;;;;;;29.86;32.25;102051.97;5037709;28;20029;-60
2022/10/09 09:37:37;;;;;;;4.60;1.50;;;;;;;30.06;31.53;102047.09;5037961;28;20021;-61
2022/10/09 09:40:04;;;;;;;4.30;1.20;;;;;;;30.18;31.74;102042.50;5055500;28;20130;-60
2022/10/09 09:42:29;;;;;;;3.42;1.27;;;;;;;30.30;31.78;102035.13;5055223;28;20418;-61
2022/10/09 09:45:02;;;;;;;3.40;1.50;;;;;;;30.63;31.13;102028.41;5053970;28;20138;-62
2022/10/09 09:47:40;;;;;;;;;;;;;;;30.92;31.22;102036.75;5055856;28;20036;-61
2022/10/09 09:50:06;;;;;;;6.43;1.40;;;;;;;31.21;31.04;102023.16;5037592;28;19916;-61
2022/10/09 09:52:42;;;;;;;5.03;1.10;;;;;;;31.55;30.50;102028.78;5055487;28;20395;-61
2022/10/09 09:55:22;;;;;;;4.32;1.30;;;;;;;31.84;30.06;102020.59;5037518;28;20036;-61
2022/10/09 09:57:47;;;;;;;4.32;0.90;;;;;;;32.04;29.88;102010.03;5037480;28;20028;-59
2022/10/09 10:00:22;;;;;;;6.93;1.15;;;;;;;32.25;29.73;102015.78;5037607;28;20490;-61
2022/10/09 10:02:48;;;;;;;2.33;1.33;;;;;;;32.45;28.93;102009.00;5054947;28;20179;-59
2022/10/09 10:05:23;;;;;;;3.53;1.10;;;;;;;32.72;28.94;102013.75;5055022;28;20032;-59
2022/10/09 10:07:50;;;;;;;1.25;0.70;;;;;;;32.95;29.61;102006.41;5054954;28;20017;-59
2022/10/09 10:10:26;;;;;;;6.60;1.05;;;;;;;33.15;28.59;102006.84;5055392;28;20032;-60
2022/10/09 10:12:51;;;;;;;2.78;1.08;;;;;;;33.27;28.61;102002.06;5037440;28;20025;-59
2022/10/09 10:15:22;;;;;;;4.10;1.02;;;;;;;33.40;28.96;101999.81;5055076;28;20025;-59
2022/10/09 10:17:49;;;;;;;2.25;1.33;;;;;;;33.55;28.24;101996.44;5054908;28;20107;-60
2022/10/09 10:20:16;;;;;;;3.20;1.13;;;;;;;33.75;27.48;101984.84;5053830;28;20036;-59
2022/10/09 10:22:46;;;;;;;3.72;1.27;;;;;;;33.88;27.19;101985.31;5055048;28;20470;-59
2022/10/09 10:25:16;;;;;;;2.80;0.90;;;;;;;34.03;27.54;101981.06;5037383;28;20028;-59
2022/10/09 10:27:42;;;;;;;4.20;1.27;;;;;;;34.17;26.90;101977.69;5036871;28;20024;-59
2022/10/09 10:30:13;;;;;;;1.67;1.10;;;;;;;34.35;27.61;101962.59;5054979;28;20039;-59
2022/10/09 10:33:02;;;;;;;2.63;1.40;;;;;;;34.46;27.56;101959.69;5054711;28;20086;-59
2022/10/09 10:35:31;;;;;;;2.85;0.88;;;;;;;34.58;27.33;101967.94;5032145;28;20098;-59
2022/10/09 10:38:20;;;;;;;3.95;1.33;;;;;;;34.70;26.93;101954.72;5036829;28;20393;-60
2022/10/09 10:40:54;;;;;;;4.35;1.00;;;;;;;34.79;27.05;101955.88;5053517;28;20032;-59
2022/10/09 10:43:46;;;;;;;4.97;1.08;;;;;;;34.89;26.39;101946.81;5036727;28;20029;-59
2022/10/09 10:46:24;;;;;;;12.07;1.27;;;;;;;35.03;26.24;101943.34;5031032;28;20048;-59
2022/10/09 10:48:51;;;;;;;1.90;0.82;;;;;;;35.08;26.21;101948.97;5036947;28;20112;-59
2022/10/09 10:51:30;;;;;;;5.10;1.15;;;;;;;35.09;25.77;101933.94;5053189;28;20028;-59
2022/10/09 10:54:05;;;;;;;6.20;1.00;;;;;;;35.19;26.21;101935.13;5053123;28;20098;-59
2022/10/09 10:56:36;;;;;;;2.40;0.70;;;;;;;35.20;26.57;101932.09;5054652;28;20033;-59
2022/10/09 10:59:32;;;;;;;3.45;1.25;;;;;;;35.22;26.24;101929.03;5053006;28;20052;-60
2022/10/09 11:02:46;;;;;;;2.58;0.95;;;;;;;35.19;25.76;101915.63;5054307;28;20410;-59
2022/10/09 11:05:21;;;;;;;7.72;1.05;;;;;;;35.20;26.39;101917.31;5046598;28;20494;-59
2022/10/09 11:07:49;;;;;;;2.50;0.70;;;;;;;35.18;26.48;101911.19;5053214;28;20052;-60
2022/10/09 11:10:26;;;;;;;1.73;0.90;;;;;;;35.13;25.40;101908.31;5054098;28;20126;-60
2022/10/09 11:13:11;;;;;;;7.38;1.20;;;;;;;35.13;25.87;101908.31;5036575;28;20040;-60
2022/10/09 11:15:52;;;;;;;4.63;1.17;;;;;;;35.13;25.91;101902.75;5036252;28;20079;-60
2022/10/09 11:18:27;;;;;;;2.97;1.00;;;;;;;35.15;25.39;101900.56;5053855;28;20017;-60
2022/10/09 11:21:28;;;;;;;2.42;0.95;;;;;;;35.21;25.93;101894.72;5054134;28;20033;-59
2022/10/09 11:24:14;;;;;;;2.05;1.00;;;;;;;35.26;25.80;101896.75;5012898;28;20482;-60
2022/10/09 11:27:09;;;;;;;2.33;0.77;;;;;;;35.29;25.75;101897.03;5053976;28;20021;-60
2022/10/09 11:29:49;;;;;;;1.33;0.80;;;;;;;35.25;24.98;101892.25;4994392;28;20557;-59
2022/10/09 11:32:20;;;;;;;2.60;1.25;;;;;;;35.20;25.24;101881.09;5053685;28;20067;-59